Time;durP1;ratioP1;P1;durP2;ratioP2;P2;SDS_P1;SDS_P2;PMS_P1;PMS_P2;Temp;Humidity;BMP_temperature;BMP_pressure;BME280_temperature;BME280_humidity;BME280_pressure;Samples;Min_cycle;Max_cycle;Signal;HPM_P1;HPM_P2
2021/09/27 00:00:15;;;;;;;6.25;3.72;;;17.50;99.90;;;;;;5070030;28;20274;-82
2021/09/27 00:02:42;;;;;;;5.40;3.80;;;17.50;99.90;;;;;;5070270;28;20218;-79
2021/09/27 00:05:12;;;;;;;4.68;3.45;;;17.50;99.90;;;;;;5069952;28;20206;-82
2021/09/27 00:07:40;;;;;;;5.63;4.20;;;17.40;99.90;;;;;;5070372;28;20206;-76
2021/09/27 00:10:10;;;;;;;5.60;3.90;;;17.40;99.90;;;;;;5069613;28;20198;-81
2021/09/27 00:12:37;;;;;;;4.60;3.60;;;17.50;99.90;;;;;;5070252;28;20210;-80
2021/09/27 00:15:06;;;;;;;5.28;4.78;;;17.50;99.90;;;;;;5069985;28;20283;-78
2021/09/27 00:17:34;;;;;;;6.15;3.70;;;17.60;99.90;;;;;;5070292;28;20303;-79
2021/09/27 00:20:01;;;;;;;4.88;4.40;;;17.60;99.90;;;;;;5069871;28;20674;-73
2021/09/27 00:22:29;;;;;;;4.22;3.85;;;17.60;99.90;;;;;;5070258;28;20633;-76
2021/09/27 00:24:56;;;;;;;5.50;5.00;;;17.60;99.90;;;;;;5069994;28;20649;-78
2021/09/27 00:27:22;;;;;;;5.00;4.57;;;17.60;99.90;;;;;;5069436;28;20696;-79
2021/09/27 00:29:49;;;;;;;4.68;4.20;;;17.50;99.90;;;;;;5070228;28;20271;-78
2021/09/27 00:32:16;;;;;;;7.13;3.95;;;17.60;99.90;;;;;;5069266;28;20685;-79
2021/09/27 00:34:45;;;;;;;5.25;4.75;;;17.60;99.90;;;;;;5070072;28;20210;-79
2021/09/27 00:37:12;;;;;;;4.35;3.95;;;17.60;99.90;;;;;;5069144;28;20768;-79
2021/09/27 00:39:39;;;;;;;6.30;4.78;;;17.50;99.90;;;;;;5070137;28;20252;-79
2021/09/27 00:42:06;;;;;;;4.60;3.97;;;17.50;99.90;;;;;;5069284;28;20210;-76
2021/09/27 00:44:33;;;;;;;4.90;3.92;;;17.50;99.90;;;;;;5070049;28;20255;-76
2021/09/27 00:47:00;;;;;;;5.55;4.82;;;17.50;99.90;;;;;;5071093;28;20210;-77
2021/09/27 00:49:27;;;;;;;8.43;4.85;;;17.50;99.90;;;;;;5073058;28;20682;-82
2021/09/27 00:51:55;;;;;;;5.03;4.20;;;17.40;99.90;;;;;;5073530;28;20210;-82
2021/09/27 00:54:26;;;;;;;4.13;3.72;;;17.40;99.90;;;;;;5073277;28;20202;-76
2021/09/27 00:56:55;;;;;;;5.40;4.70;;;17.50;99.90;;;;;;5073175;28;20284;-82
2021/09/27 00:59:25;;;;;;;4.47;4.07;;;17.40;99.90;;;;;;5072920;28;20649;-79
2021/09/27 01:01:53;;;;;;;5.30;4.70;;;17.40;99.90;;;;;;5073050;28;20226;-81
2021/09/27 01:04:20;;;;;;;4.47;4.07;;;17.40;99.90;;;;;;5073089;28;20214;-82
2021/09/27 01:07:06;;;;;;;4.85;4.38;;;17.40;99.90;;;;;;5072876;28;20669;-78
2021/09/27 01:09:43;;;;;;;6.57;4.93;;;17.40;99.90;;;;;;5072886;28;20217;-80
2021/09/27 01:12:26;;;;;;;5.85;5.25;;;17.50;99.90;;;;;;5072672;28;20267;-78
2021/09/27 01:15:05;;;;;;;6.30;5.13;;;17.60;99.90;;;;;;5072997;28;20271;-80
2021/09/27 01:17:42;;;;;;;7.95;4.82;;;17.60;99.90;;;;;;5073037;28;20234;-77
2021/09/27 01:20:44;;;;;;;4.30;4.00;;;17.60;99.90;;;;;;5072627;28;20202;-81
2021/09/27 01:23:53;;;;;;;6.43;4.80;;;17.60;99.90;;;;;;5070353;28;20202;-80
2021/09/27 01:26:38;;;;;;;6.35;5.55;;;17.40;99.90;;;;;;5066427;28;20256;-80
2021/09/27 01:29:45;;;;;;;6.40;4.72;;;17.40;99.90;;;;;;5072274;28;20210;-79
2021/09/27 01:32:27;;;;;;;5.00;4.50;;;17.40;99.90;;;;;;5000350;28;20216;-81
2021/09/27 01:35:09;;;;;;;5.40;4.90;;;17.40;99.90;;;;;;5063972;28;20202;-77
2021/09/27 01:37:45;;;;;;;5.45;4.88;;;17.40;99.90;;;;;;5072733;28;20225;-76
2021/09/27 01:40:19;;;;;;;5.75;5.18;;;17.30;99.90;;;;;;5071724;28;20255;-80
2021/09/27 01:43:01;;;;;;;5.35;4.85;;;17.30;99.90;;;;;;5072840;28;20259;-82
2021/09/27 01:45:37;;;;;;;5.45;4.88;;;17.30;99.90;;;;;;5073085;28;20202;-76
2021/09/27 01:48:11;;;;;;;4.88;4.45;;;17.20;99.90;;;;;;5072198;28;20209;-77
2021/09/27 01:50:44;;;;;;;6.07;5.10;;;17.30;99.90;;;;;;5059433;28;20201;-80
2021/09/27 01:53:17;;;;;;;5.15;4.13;;;17.30;99.90;;;;;;5071949;28;20206;-82
2021/09/27 01:55:51;;;;;;;6.38;4.95;;;17.30;99.90;;;;;;5072591;28;20202;-77
2021/09/27 01:58:24;;;;;;;4.88;4.38;;;17.30;99.90;;;;;;5071316;28;20209;-82
2021/09/27 02:00:54;;;;;;;5.15;3.67;;;17.30;99.90;;;;;;5072606;28;20560;-83
2021/09/27 02:03:28;;;;;;;5.18;4.65;;;17.20;99.90;;;;;;5072263;28;20214;-86
2021/09/27 02:06:01;;;;;;;6.18;5.20;;;17.20;99.90;;;;;;5058547;28;20201;-83
2021/09/27 02:08:35;;;;;;;6.28;4.28;;;17.10;99.90;;;;;;5072464;28;20335;-79
2021/09/27 02:11:08;;;;;;;5.85;5.35;;;17.10;99.90;;;;;;5072823;28;20210;-76
2021/09/27 02:13:39;;;;;;;5.00;4.53;;;17.00;99.90;;;;;;5072438;28;20210;-77
2021/09/27 02:16:12;;;;;;;8.05;4.65;;;16.90;99.90;;;;;;5072104;28;20203;-89
2021/09/27 02:18:46;;;;;;;5.65;4.70;;;16.90;99.90;;;;;;5072574;28;20206;-88
2021/09/27 02:21:15;;;;;;;5.38;4.82;;;16.90;99.90;;;;;;5072192;28;20297;-88
2021/09/27 02:23:51;;;;;;;7.07;5.07;;;16.90;99.90;;;;;;5072323;28;20260;-82
2021/09/27 02:26:18;;;;;;;4.93;4.18;;;16.90;99.90;;;;;;5057510;28;20676;-80
2021/09/27 02:28:45;;;;;;;5.50;4.97;;;16.90;99.90;;;;;;5072077;28;20202;-80
2021/09/27 02:31:19;;;;;;;6.20;5.28;;;16.90;99.90;;;;;;5071482;28;20206;-82
2021/09/27 02:33:52;;;;;;;5.45;4.28;;;16.90;99.90;;;;;;5071883;28;20233;-83
2021/09/27 02:36:25;;;;;;;7.00;5.40;;;16.80;99.90;;;;;;5071506;28;20214;-84
2021/09/27 02:39:00;;;;;;;7.65;5.60;;;16.90;99.90;;;;;;5071429;28;20214;-78
2021/09/27 02:41:35;;;;;;;7.00;6.30;;;16.80;99.90;;;;;;5071803;28;20193;-89
2021/09/27 02:44:02;;;;;;;6.15;5.47;;;16.70;99.90;;;;;;5071949;28;20210;-82
2021/09/27 02:46:30;;;;;;;10.25;4.90;;;16.70;99.90;;;;;;5071849;28;20255;-87
2021/09/27 02:49:09;;;;;;;5.97;5.32;;;16.70;99.90;;;;;;5071983;28;20213;-89
2021/09/27 02:51:37;;;;;;;7.63;6.20;;;16.70;99.90;;;;;;5071316;28;20202;-87
2021/09/27 02:54:04;;;;;;;5.50;4.90;;;16.70;99.90;;;;;;5071469;28;20267;-82
2021/09/27 02:56:59;;;;;;;6.80;5.50;;;16.60;99.90;;;;;;5071419;28;20234;-79
2021/09/27 02:59:36;;;;;;;5.60;5.10;;;16.60;99.90;;;;;;5071526;28;20206;-80
2021/09/27 03:02:08;;;;;;;6.25;5.03;;;16.60;99.90;;;;;;5071171;28;20642;-78
2021/09/27 03:04:48;;;;;;;7.10;6.40;;;16.50;99.90;;;;;;5071242;28;20619;-86
2021/09/27 03:07:27;;;;;;;7.20;5.65;;;16.50;99.90;;;;;;5071019;28;20244;-87
2021/09/27 03:10:03;;;;;;;6.40;5.15;;;16.60;99.90;;;;;;5071681;28;20236;-82
2021/09/27 03:12:40;;;;;;;8.05;6.28;;;16.50;99.90;;;;;;5059381;28;20224;-88
2021/09/27 03:15:48;;;;;;;5.60;4.95;;;16.50;99.90;;;;;;5071135;28;20206;-82
2021/09/27 03:18:26;;;;;;;6.55;5.95;;;16.50;99.90;;;;;;5071065;28;20286;-88
2021/09/27 03:21:08;;;;;;;6.82;5.93;;;16.50;99.90;;;;;;5071175;28;20258;-89
2021/09/27 03:23:46;;;;;;;5.90;5.30;;;16.60;99.90;;;;;;5070713;28;20244;-83
2021/09/27 03:26:27;;;;;;;10.77;6.15;;;16.60;99.90;;;;;;5071021;28;20275;-88
2021/09/27 03:29:03;;;;;;;7.00;5.97;;;16.60;99.90;;;;;;5070492;28;20251;-81
2021/09/27 03:31:39;;;;;;;9.48;7.25;;;16.50;99.90;;;;;;5071035;28;20248;-82
2021/09/27 03:34:14;;;;;;;6.93;6.22;;;16.60;99.90;;;;;;5070422;28;20206;-83
2021/09/27 03:37:10;;;;;;;7.60;5.75;;;16.50;99.90;;;;;;5070839;28;20251;-80
2021/09/27 03:39:43;;;;;;;8.20;6.32;;;16.50;99.90;;;;;;5070629;28;20621;-83
2021/09/27 03:42:18;;;;;;;8.77;5.78;;;16.40;99.90;;;;;;5070516;28;20214;-84
2021/09/27 03:44:53;;;;;;;6.25;5.65;;;16.50;99.90;;;;;;5070768;28;20205;-81
2021/09/27 03:47:28;;;;;;;6.97;6.25;;;16.50;99.90;;;;;;5070272;28;20206;-84
2021/09/27 03:50:01;;;;;;;6.50;5.78;;;16.50;99.90;;;;;;5070392;28;20209;-80
2021/09/27 03:52:36;;;;;;;8.07;5.80;;;16.50;99.90;;;;;;5071035;28;20285;-84
2021/09/27 03:55:10;;;;;;;7.07;6.38;;;16.40;99.90;;;;;;5069968;28;20209;-78
2021/09/27 03:57:42;;;;;;;6.05;5.38;;;16.40;99.90;;;;;;5070653;28;20594;-81
2021/09/27 04:00:12;;;;;;;6.43;5.82;;;16.40;99.90;;;;;;5069868;28;20621;-81
2021/09/27 04:02:44;;;;;;;7.45;6.00;;;16.40;99.90;;;;;;5070468;28;20742;-80
2021/09/27 04:05:19;;;;;;;6.70;6.10;;;16.40;99.90;;;;;;5069484;28;20694;-83
2021/09/27 04:08:08;;;;;;;6.28;5.68;;;16.40;99.90;;;;;;5070487;28;20549;-84
2021/09/27 04:10:52;;;;;;;6.85;6.15;;;16.30;99.90;;;;;;5070094;28;20198;-79
2021/09/27 04:13:29;;;;;;;6.63;5.40;;;16.30;99.90;;;;;;5069946;28;20259;-83
2021/09/27 04:16:07;;;;;;;12.25;7.35;;;16.20;99.90;;;;;;5070421;28;20213;-82
2021/09/27 04:18:45;;;;;;;7.47;6.50;;;16.20;99.90;;;;;;5070046;28;20283;-83
2021/09/27 04:21:19;;;;;;;6.22;5.63;;;16.40;99.90;;;;;;5069745;28;20565;-83
2021/09/27 04:24:03;;;;;;;7.10;6.38;;;16.30;99.90;;;;;;5073736;28;20210;-83
2021/09/27 04:26:43;;;;;;;7.63;6.28;;;16.30;99.90;;;;;;5074823;28;20267;-84
2021/09/27 04:29:34;;;;;;;7.68;6.97;;;16.40;99.90;;;;;;5073444;28;20259;-80
2021/09/27 04:32:12;;;;;;;7.45;6.60;;;16.40;99.90;;;;;;5073413;28;20214;-76
2021/09/27 04:34:58;;;;;;;7.47;6.53;;;16.20;99.90;;;;;;5073747;28;20622;-81
2021/09/27 04:37:27;;;;;;;7.32;6.38;;;16.10;99.90;;;;;;5073599;28;20229;-76
2021/09/27 04:39:56;;;;;;;10.27;6.88;;;16.20;99.90;;;;;;5073652;28;20630;-76
2021/09/27 04:42:49;;;;;;;9.02;7.95;;;16.20;99.90;;;;;;5073788;28;20210;-88
2021/09/27 04:45:41;;;;;;;8.27;6.65;;;16.20;99.90;;;;;;5073645;28;20734;-81
2021/09/27 04:48:22;;;;;;;8.15;7.28;;;16.30;99.90;;;;;;5073118;28;20214;-82
2021/09/27 04:51:03;;;;;;;9.88;7.13;;;16.30;99.90;;;;;;5073223;28;20210;-79
2021/09/27 04:53:45;;;;;;;7.25;6.40;;;16.30;99.90;;;;;;5072040;28;20202;-80
2021/09/27 04:56:31;;;;;;;7.03;5.97;;;16.20;99.90;;;;;;5072824;28;20214;-81
2021/09/27 04:59:07;;;;;;;10.63;7.93;;;16.20;99.90;;;;;;5061427;28;20230;-81
2021/09/27 05:02:00;;;;;;;7.95;6.57;;;16.10;99.90;;;;;;5072981;28;20356;-82
2021/09/27 05:04:48;;;;;;;10.02;7.85;;;16.20;99.90;;;;;;5073412;28;20247;-82
2021/09/27 05:07:54;;;;;;;10.27;8.43;;;16.10;99.90;;;;;;5073050;28;20266;-81
2021/09/27 05:10:50;;;;;;;8.10;6.63;;;16.10;99.90;;;;;;5032261;28;20266;-81
2021/09/27 05:13:31;;;;;;;8.50;6.50;;;16.10;99.90;;;;;;5066640;28;20244;-81
2021/09/27 05:16:23;;;;;;;7.25;6.55;;;16.20;99.90;;;;;;5060920;28;20202;-81
2021/09/27 05:19:25;;;;;;;7.70;6.00;;;16.10;99.90;;;;;;5072753;28;20214;-81
2021/09/27 05:22:24;;;;;;;7.97;7.20;;;16.10;99.90;;;;;;5072711;28;20213;-81
2021/09/27 05:25:11;;;;;;;7.18;6.57;;;16.10;99.90;;;;;;5072550;28;20241;-81
2021/09/27 05:27:55;;;;;;;7.25;6.38;;;16.10;99.90;;;;;;5072996;28;20206;-81
2021/09/27 05:30:38;;;;;;;7.40;6.57;;;16.10;99.90;;;;;;5072216;28;20206;-81
2021/09/27 05:33:11;;;;;;;7.15;5.95;;;16.10;99.90;;;;;;5072144;28;20202;-81
2021/09/27 05:35:57;;;;;;;7.30;6.53;;;16.10;99.90;;;;;;5073485;28;20263;-83
2021/09/27 05:38:34;;;;;;;9.77;6.45;;;16.20;99.90;;;;;;5072176;28;20234;-83
2021/09/27 05:41:11;;;;;;;5.97;5.47;;;16.20;99.90;;;;;;5072757;28;20206;-81
2021/09/27 05:43:57;;;;;;;7.13;6.40;;;16.20;99.90;;;;;;5072710;28;20198;-81
2021/09/27 05:46:44;;;;;;;8.13;6.28;;;16.20;99.90;;;;;;5071972;28;20206;-81
2021/09/27 05:49:19;;;;;;;7.68;6.95;;;16.10;99.90;;;;;;5072021;28;20635;-85
2021/09/27 05:51:53;;;;;;;7.32;6.55;;;16.00;99.90;;;;;;5072705;28;20202;-86
2021/09/27 05:54:27;;;;;;;9.52;6.45;;;15.90;99.90;;;;;;5071949;28;20267;-82
2021/09/27 05:57:02;;;;;;;12.85;7.35;;;16.00;99.90;;;;;;5070200;28;20629;-83
2021/09/27 05:59:36;;;;;;;9.90;8.23;;;16.00;99.90;;;;;;5072818;28;20241;-84
2021/09/27 06:02:13;;;;;;;7.20;6.47;;;16.10;99.90;;;;;;5072048;28;20279;-83
2021/09/27 06:04:49;;;;;;;8.00;7.00;;;16.00;99.90;;;;;;5072834;28;20265;-82
2021/09/27 06:07:21;;;;;;;6.97;5.82;;;16.10;99.90;;;;;;5072438;28;20206;-88
2021/09/27 06:09:59;;;;;;;8.38;7.22;;;16.20;99.90;;;;;;5072718;28;20202;-80
2021/09/27 06:12:30;;;;;;;12.90;7.05;;;16.20;99.90;;;;;;5059429;28;20248;-86
2021/09/27 06:15:01;;;;;;;6.60;5.90;;;16.30;99.90;;;;;;5073232;28;20214;-90
2021/09/27 06:17:46;;;;;;;7.18;6.47;;;16.20;99.90;;;;;;5072829;28;20287;-82
2021/09/27 06:20:18;;;;;;;9.13;6.78;;;16.10;99.90;;;;;;5072313;28;20214;-84
2021/09/27 06:23:00;;;;;;;9.90;6.63;;;16.10;99.90;;;;;;5073080;28;20202;-89
2021/09/27 06:25:32;;;;;;;8.00;6.93;;;16.20;99.90;;;;;;5072513;28;20242;-79
2021/09/27 06:28:10;;;;;;;10.25;7.10;;;16.30;99.90;;;;;;5073020;28;20259;-88
2021/09/27 06:30:45;;;;;;;10.95;6.90;;;16.40;99.90;;;;;;5073807;28;20259;-89
2021/09/27 06:33:20;;;;;;;8.95;7.85;;;16.50;99.90;;;;;;5072227;28;20210;-75
2021/09/27 06:35:50;;;;;;;10.10;7.75;;;16.60;99.90;;;;;;5070446;28;20722;-83
2021/09/27 06:38:19;;;;;;;9.15;7.57;;;16.60;99.90;;;;;;5069994;28;20309;-81
2021/09/27 06:40:50;;;;;;;10.25;7.97;;;16.70;99.90;;;;;;5071589;28;20249;-82
2021/09/27 06:43:24;;;;;;;9.70;7.82;;;16.70;99.90;;;;;;5071010;28;20324;-84
2021/09/27 06:45:52;;;;;;;10.27;6.93;;;16.80;99.90;;;;;;5071160;28;20642;-84
2021/09/27 06:48:21;;;;;;;10.73;7.80;;;16.80;99.90;;;;;;5071181;28;20244;-86
2021/09/27 06:50:49;;;;;;;11.38;8.25;;;16.80;99.90;;;;;;5073623;28;20214;-90
2021/09/27 06:53:16;;;;;;;9.52;7.43;;;16.80;99.90;;;;;;5071235;28;20260;-86
2021/09/27 06:55:44;;;;;;;10.05;7.07;;;16.80;99.90;;;;;;5071545;28;20247;-80
2021/09/27 06:58:11;;;;;;;9.73;7.88;;;16.90;99.90;;;;;;5070952;28;20713;-79
2021/09/27 07:00:38;;;;;;;9.23;7.70;;;16.80;99.90;;;;;;5071781;28;20283;-88
2021/09/27 07:03:05;;;;;;;8.35;7.47;;;16.90;99.90;;;;;;5071022;28;20202;-74
2021/09/27 07:05:34;;;;;;;11.85;7.68;;;16.80;99.90;;;;;;5071298;28;20206;-85
2021/09/27 07:08:01;;;;;;;11.60;8.63;;;16.90;99.90;;;;;;5071398;28;20631;-82
2021/09/27 07:10:29;;;;;;;11.13;7.50;;;16.90;99.90;;;;;;5071159;28;20553;-86
2021/09/27 07:12:56;;;;;;;8.30;7.50;;;17.00;99.90;;;;;;5071042;28;20209;-79
2021/09/27 07:15:24;;;;;;;8.85;7.18;;;17.10;99.90;;;;;;5069857;28;20259;-74
2021/09/27 07:17:51;;;;;;;8.85;7.95;;;17.10;99.90;;;;;;5070746;28;21139;-74
2021/09/27 07:20:21;;;;;;;11.15;7.88;;;17.10;99.90;;;;;;5070231;28;20244;-81
2021/09/27 07:22:50;;;;;;;7.70;6.90;;;17.20;99.90;;;;;;5070734;28;20202;-83
2021/09/27 07:25:17;;;;;;;11.10;7.15;;;17.20;99.90;;;;;;5069960;28;20749;-83
2021/09/27 07:27:45;;;;;;;11.82;7.70;;;17.10;99.90;;;;;;5070527;28;20210;-74
2021/09/27 07:30:13;;;;;;;9.20;8.23;;;17.30;99.90;;;;;;5070167;28;20251;-74
2021/09/27 07:32:41;;;;;;;11.15;7.13;;;17.30;99.90;;;;;;5070204;28;20208;-74
2021/09/27 07:35:10;;;;;;;8.55;6.68;;;17.40;99.90;;;;;;5070288;28;20206;-75
2021/09/27 07:37:38;;;;;;;9.27;6.93;;;17.50;99.90;;;;;;5070226;28;20627;-85
2021/09/27 07:40:10;;;;;;;6.38;5.78;;;17.30;99.90;;;;;;5070504;28;20629;-76
2021/09/27 07:42:38;;;;;;;8.63;7.78;;;17.50;99.90;;;;;;5070184;28;20198;-76
2021/09/27 07:45:06;;;;;;;10.73;7.75;;;17.50;99.90;;;;;;5070880;28;20221;-88
2021/09/27 07:47:33;;;;;;;8.32;7.13;;;17.40;99.90;;;;;;5071112;28;20210;-88
2021/09/27 07:50:00;;;;;;;13.32;7.82;;;17.20;99.90;;;;;;5071313;28;20272;-79
2021/09/27 07:52:27;;;;;;;9.27;8.38;;;17.30;99.90;;;;;;5070842;28;20210;-83
2021/09/27 07:54:54;;;;;;;16.92;9.25;;;17.30;99.90;;;;;;5071205;28;20209;-90
2021/09/27 07:57:22;;;;;;;20.75;10.15;;;17.40;99.90;;;;;;5071798;28;20678;-79
2021/09/27 07:59:52;;;;;;;10.68;7.65;;;17.60;99.90;;;;;;5074857;28;20226;-88
2021/09/27 08:02:19;;;;;;;11.85;8.35;;;17.70;99.90;;;;;;5074209;28;20224;-87
2021/09/27 08:04:47;;;;;;;11.23;8.27;;;17.80;99.90;;;;;;5074809;28;20251;-73
2021/09/27 08:07:15;;;;;;;11.07;8.25;;;17.80;99.90;;;;;;5073898;28;20252;-73
2021/09/27 08:09:42;;;;;;;11.73;8.30;;;17.80;99.90;;;;;;5074055;28;20754;-73
2021/09/27 08:12:09;;;;;;;10.27;7.82;;;17.90;99.90;;;;;;5073460;28;20613;-72
2021/09/27 08:14:38;;;;;;;11.05;9.02;;;18.00;99.90;;;;;;5073131;28;20270;-73
2021/09/27 08:17:05;;;;;;;10.05;7.45;;;17.90;99.90;;;;;;5073303;28;20237;-74
2021/09/27 08:19:36;;;;;;;7.97;7.18;;;18.10;99.90;;;;;;5073680;28;20294;-73
2021/09/27 08:22:03;;;;;;;10.20;8.15;;;18.20;99.90;;;;;;5074006;28;20256;-73
2021/09/27 08:24:30;;;;;;;14.30;8.55;;;18.30;99.90;;;;;;5074037;28;20206;-72
2021/09/27 08:26:57;;;;;;;9.38;7.57;;;18.40;99.90;;;;;;5074179;28;20272;-72
2021/09/27 08:29:24;;;;;;;7.78;6.95;;;18.40;99.90;;;;;;5073446;28;20210;-73
2021/09/27 08:31:53;;;;;;;13.05;8.23;;;18.40;99.90;;;;;;5073670;28;20271;-73
2021/09/27 08:34:20;;;;;;;11.63;7.72;;;18.40;99.90;;;;;;5073184;28;20255;-73
2021/09/27 08:36:48;;;;;;;13.93;7.40;;;18.40;99.90;;;;;;5073670;28;20206;-72
2021/09/27 08:39:16;;;;;;;9.15;6.70;;;18.50;99.90;;;;;;5072903;28;20292;-72
2021/09/27 08:41:51;;;;;;;11.73;7.13;;;18.60;99.90;;;;;;5073716;28;20202;-74
2021/09/27 08:44:42;;;;;;;8.60;7.15;;;18.80;99.90;;;;;;5073038;28;20201;-73
2021/09/27 08:47:16;;;;;;;11.48;7.63;;;19.10;99.90;;;;;;5073000;28;20256;-73
2021/09/27 08:49:51;;;;;;;12.60;7.38;;;19.20;99.90;;;;;;5073415;28;20279;-72
2021/09/27 08:52:19;;;;;;;8.32;7.28;;;19.30;99.90;;;;;;5072897;28;20201;-74
2021/09/27 08:54:48;;;;;;;8.68;7.32;;;19.10;99.90;;;;;;5072881;28;20198;-75
2021/09/27 08:57:35;;;;;;;12.82;7.15;;;19.30;99.90;;;;;;5072779;28;20693;-73
2021/09/27 09:00:11;;;;;;;13.02;7.13;;;19.40;99.90;;;;;;5069701;28;20271;-72
2021/09/27 09:02:58;;;;;;;9.05;6.70;;;19.40;99.90;;;;;;5072932;28;20646;-72
2021/09/27 09:05:33;;;;;;;8.93;6.82;;;19.70;99.90;;;;;;5072447;28;20206;-72
2021/09/27 09:08:06;;;;;;;10.10;8.68;;;20.00;99.90;;;;;;5073016;28;20216;-72
2021/09/27 09:10:44;;;;;;;9.63;7.10;;;19.90;99.90;;;;;;5072924;28;20213;-72
2021/09/27 09:13:14;;;;;;;10.05;8.50;;;19.80;99.90;;;;;;5065480;28;20213;-73
2021/09/27 09:15:42;;;;;;;9.38;7.60;;;20.00;99.90;;;;;;5072606;28;20661;-72
2021/09/27 09:18:15;;;;;;;13.82;8.43;;;20.20;99.90;;;;;;5072677;28;20635;-72
2021/09/27 09:20:52;;;;;;;8.25;7.30;;;20.40;99.90;;;;;;5072754;28;20279;-73
2021/09/27 09:23:25;;;;;;;11.13;7.35;;;20.70;99.90;;;;;;5072650;28;20608;-73
2021/09/27 09:25:53;;;;;;;14.70;7.90;;;21.00;99.90;;;;;;5072660;28;20263;-72
2021/09/27 09:28:20;;;;;;;8.18;7.45;;;21.20;99.90;;;;;;5072167;28;20206;-72
2021/09/27 09:30:56;;;;;;;9.68;7.82;;;21.20;99.90;;;;;;5072342;28;20696;-73
2021/09/27 09:33:40;;;;;;;8.20;7.40;;;21.00;99.90;;;;;;5072357;28;20244;-75
2021/09/27 09:36:09;;;;;;;13.10;8.65;;;20.90;99.90;;;;;;5072248;28;20255;-73
2021/09/27 09:38:39;;;;;;;8.35;7.55;;;21.00;99.90;;;;;;5072336;28;20237;-73
2021/09/27 09:41:07;;;;;;;9.90;7.25;;;21.00;99.90;;;;;;5071988;28;20214;-72
2021/09/27 09:43:37;;;;;;;10.63;7.47;;;21.00;99.90;;;;;;5071774;28;20210;-72
2021/09/27 09:46:09;;;;;;;11.52;7.10;;;20.80;99.90;;;;;;5071468;28;20726;-74
2021/09/27 09:48:39;;;;;;;14.90;7.82;;;21.20;99.90;;;;;;5072378;28;20214;-73
2021/09/27 09:51:26;;;;;;;9.27;7.25;;;21.30;99.90;;;;;;5065715;28;20681;-70
2021/09/27 09:54:14;;;;;;;9.65;7.68;;;21.30;99.90;;;;;;5059831;28;20220;-73
2021/09/27 09:56:43;;;;;;;10.50;7.70;;;21.50;99.90;;;;;;5071975;28;20667;-72
2021/09/27 09:59:27;;;;;;;13.30;7.60;;;21.70;99.90;;;;;;5071560;28;20222;-72
2021/09/27 10:01:56;;;;;;;11.68;8.27;;;21.80;99.90;;;;;;5071793;28;20214;-72
2021/09/27 10:04:29;;;;;;;10.18;7.00;;;22.00;99.90;;;;;;5062243;28;20673;-71
2021/09/27 10:07:00;;;;;;;7.20;6.50;;;22.10;99.90;;;;;;5071851;28;20336;-74
2021/09/27 10:09:31;;;;;;;11.10;6.35;;;22.20;99.90;;;;;;5062190;28;20206;-73
2021/09/27 10:12:00;;;;;;;7.93;5.75;;;22.20;99.90;;;;;;5071722;28;20739;-74
2021/09/27 10:14:37;;;;;;;9.13;6.68;;;21.90;99.90;;;;;;5072090;28;20255;-75
2021/09/27 10:17:26;;;;;;;6.80;5.60;;;22.20;99.90;;;;;;5071083;28;20276;-71
2021/09/27 10:19:58;;;;;;;10.18;7.03;;;22.10;99.90;;;;;;5070864;28;20275;-73
2021/09/27 10:22:29;;;;;;;7.32;5.80;;;22.00;99.90;;;;;;5070936;28;20620;-73
2021/09/27 10:24:58;;;;;;;11.77;7.35;;;21.90;99.90;;;;;;5071998;28;20361;-72
2021/09/27 10:27:30;;;;;;;9.90;6.53;;;22.00;99.90;;;;;;5071175;28;20256;-74
2021/09/27 10:29:59;;;;;;;9.45;6.47;;;22.10;99.90;;;;;;5063853;28;20215;-73
2021/09/27 10:32:34;;;;;;;8.75;6.63;;;22.40;99.90;;;;;;5064748;28;20649;-75
2021/09/27 10:35:06;;;;;;;10.50;6.47;;;22.50;99.90;;;;;;5058398;28;20201;-73
2021/09/27 10:37:33;;;;;;;7.38;6.68;;;22.60;99.90;;;;;;5070521;28;20206;-73
2021/09/27 10:40:00;;;;;;;9.65;6.55;;;22.70;99.90;;;;;;5062782;28;20226;-73
2021/09/27 10:42:39;;;;;;;6.57;5.97;;;23.00;99.90;;;;;;5071396;28;20218;-72
2021/09/27 10:45:08;;;;;;;8.98;5.78;;;23.30;99.90;;;;;;5070629;28;20274;-74
2021/09/27 10:47:38;;;;;;;8.18;7.05;;;23.60;99.90;;;;;;5071032;28;20742;-73
2021/09/27 10:50:11;;;;;;;8.23;6.90;;;23.70;99.90;;;;;;5070351;28;20301;-71
2021/09/27 10:52:45;;;;;;;8.90;7.07;;;23.50;99.90;;;;;;5070829;28;20201;-71
2021/09/27 10:55:26;;;;;;;11.60;6.95;;;23.60;99.90;;;;;;5070488;28;20742;-72
2021/09/27 10:57:57;;;;;;;7.00;6.28;;;23.60;99.90;;;;;;5070865;28;20259;-73
2021/09/27 11:00:36;;;;;;;6.40;5.80;;;23.50;99.90;;;;;;5070216;28;20637;-74
2021/09/27 11:03:14;;;;;;;6.35;5.75;;;23.30;99.90;;;;;;5070501;28;20260;-72
2021/09/27 11:05:54;;;;;;;9.50;5.90;;;23.40;99.90;;;;;;5070565;28;20210;-74
2021/09/27 11:08:47;;;;;;;6.20;5.15;;;23.60;99.90;;;;;;5065416;28;20748;-73
2021/09/27 11:11:22;;;;;;;6.35;5.32;;;23.70;99.90;;;;;;5070440;28;20202;-73
2021/09/27 11:13:49;;;;;;;6.38;5.10;;;24.00;99.90;;;;;;5070735;28;20203;-73
2021/09/27 11:16:20;;;;;;;5.88;5.25;;;24.10;99.90;;;;;;5070379;28;20275;-73
2021/09/27 11:18:59;;;;;;;10.20;5.40;;;24.10;99.90;;;;;;5069614;28;20202;-73
2021/09/27 11:21:44;;;;;;;4.50;4.10;;;24.00;99.90;;;;;;5070183;28;20558;-74
2021/09/27 11:24:43;;;;;;;4.70;4.30;;;23.90;99.90;;;;;;5070245;28;20198;-73
2021/09/27 11:27:13;;;;;;;4.55;3.10;;;24.00;99.90;;;;;;5069932;28;20210;-73
2021/09/27 11:29:50;;;;;;;3.40;3.10;;;23.80;99.90;;;;;;5070073;28;20202;-75
2021/09/27 11:32:46;;;;;;;3.00;2.70;;;23.80;99.90;;;;;;5070176;28;20209;-74
2021/09/27 11:35:33;;;;;;;3.38;3.08;;;23.70;99.90;;;;;;5058392;28;20347;-74
2021/09/27 11:38:32;;;;;;;4.25;2.92;;;23.60;99.90;;;;;;5070524;28;20202;-82
2021/09/27 11:41:32;;;;;;;3.53;3.22;;;23.60;99.90;;;;;;5070519;28;20263;-81
2021/09/27 11:44:16;;;;;;;3.42;2.85;;;23.50;99.90;;;;;;5063885;28;20207;-79
2021/09/27 11:46:57;;;;;;;6.05;3.30;;;23.40;99.90;;;;;;5069509;28;20250;-79
2021/09/27 11:49:50;;;;;;;4.82;3.65;;;23.30;99.90;;;;;;5069535;28;20293;-81
2021/09/27 11:52:29;;;;;;;3.83;2.90;;;23.30;99.90;;;;;;5068231;28;20691;-89
2021/09/27 11:55:02;;;;;;;4.30;3.15;;;23.40;99.90;;;;;;5071129;28;20205;-84
2021/09/27 11:57:39;;;;;;;4.65;3.28;;;23.50;99.90;;;;;;5070887;28;20226;-84
2021/09/27 12:00:10;;;;;;;5.28;3.50;;;23.60;99.90;;;;;;5069893;28;20241;-85
2021/09/27 12:02:49;;;;;;;4.97;3.50;;;23.80;99.90;;;;;;5070187;28;20678;-83
2021/09/27 12:05:36;;;;;;;3.78;3.40;;;23.90;99.90;;;;;;5070414;28;20283;-87
2021/09/27 12:08:06;;;;;;;4.05;2.78;;;24.60;99.90;;;;;;5062341;28;20240;-83
2021/09/27 12:10:41;;;;;;;3.53;3.03;;;24.90;99.90;;;;;;5070345;28;20210;-90
2021/09/27 12:13:14;;;;;;;3.50;3.20;;;25.00;99.90;;;;;;5070489;28;20665;-89
2021/09/27 12:15:45;;;;;;;4.03;3.30;;;24.60;99.90;;;;;;5070057;28;20208;-90
2021/09/27 12:18:37;;;;;;;4.93;3.45;;;24.40;99.90;;;;;;5070150;28;20272;-87
2021/09/27 12:21:10;;;;;;;5.25;3.55;;;24.20;99.90;;;;;;5070687;28;20660;-80
2021/09/27 12:23:48;;;;;;;2.75;2.55;;;24.30;99.90;;;;;;5072304;28;20214;-86
2021/09/27 12:26:23;;;;;;;2.78;2.53;;;24.50;99.90;;;;;;5070279;28;20210;-86
2021/09/27 12:29:02;;;;;;;4.18;2.90;;;24.50;99.90;;;;;;5070221;28;20731;-84
2021/09/27 12:31:29;;;;;;;4.78;2.90;;;24.40;99.90;;;;;;5070342;28;20214;-88
2021/09/27 12:33:56;;;;;;;3.03;2.30;;;24.30;99.90;;;;;;5070406;28;20650;-90
2021/09/27 12:36:24;;;;;;;3.17;2.88;;;24.20;99.90;;;;;;5070653;28;20207;-85
2021/09/27 12:38:53;;;;;;;2.60;2.40;;;24.20;99.90;;;;;;5070496;28;20568;-86
2021/09/27 12:41:26;;;;;;;3.70;2.65;;;24.10;99.90;;;;;;5070123;28;20234;-87
2021/09/27 12:44:03;;;;;;;3.28;2.67;;;24.00;99.90;;;;;;5072521;28;20260;-80
2021/09/27 12:46:31;;;;;;;2.78;2.30;;;24.00;99.90;;;;;;5072191;28;20735;-84
2021/09/27 12:49:00;;;;;;;2.72;2.53;;;23.90;99.90;;;;;;5075007;28;20283;-89
2021/09/27 12:51:33;;;;;;;2.15;2.03;;;23.90;99.90;;;;;;5074528;28;20206;-82
2021/09/27 12:54:04;;;;;;;3.35;2.60;;;23.90;99.90;;;;;;5074209;28;20206;-82
2021/09/27 12:56:34;;;;;;;6.80;3.35;;;23.90;99.90;;;;;;5065471;28;20207;-76
2021/09/27 12:59:04;;;;;;;3.15;2.63;;;23.80;99.90;;;;;;5072572;28;20213;-86
2021/09/27 13:01:34;;;;;;;3.10;2.80;;;23.80;99.90;;;;;;5067738;28;20646;-77
2021/09/27 13:04:05;;;;;;;2.58;2.38;;;23.80;99.90;;;;;;5073847;28;20214;-73
2021/09/27 13:06:36;;;;;;;6.97;3.30;;;23.70;99.90;;;;;;5071654;28;20198;-73
2021/09/27 13:09:09;;;;;;;5.60;3.28;;;23.80;99.90;;;;;;5073058;28;20669;-74
2021/09/27 13:11:40;;;;;;;4.70;2.95;;;23.80;99.90;;;;;;5072398;28;20662;-83
2021/09/27 13:14:16;;;;;;;7.45;3.05;;;23.90;99.90;;;;;;5072167;28;20198;-90
2021/09/27 13:16:45;;;;;;;4.65;2.50;;;24.00;99.90;;;;;;5072669;28;20610;-78
2021/09/27 13:19:36;;;;;;;2.83;2.60;;;23.70;99.90;;;;;;5072460;28;20244;-86
2021/09/27 13:22:04;;;;;;;4.45;2.63;;;23.70;99.90;;;;;;5072679;28;20267;-74
2021/09/27 13:24:32;;;;;;;2.75;2.53;;;23.70;99.90;;;;;;5073343;28;20284;-81